createdAt,value
2019-03-20T00:00:44.999Z,93.20
2019-03-20T00:03:13.862Z,93.10
2019-03-20T00:05:42.685Z,93.30
2019-03-20T00:08:12.048Z,93.00
2019-03-20T00:10:40.916Z,93.30
2019-03-20T00:13:09.717Z,93.20
2019-03-20T00:15:39.451Z,93.70
2019-03-20T00:18:08.700Z,93.30
2019-03-20T00:20:39.401Z,93.40
2019-03-20T00:23:11.226Z,93.30
2019-03-20T00:25:40.039Z,93.40
2019-03-20T00:28:09.791Z,93.30
2019-03-20T00:30:38.564Z,93.60
2019-03-20T00:33:07.971Z,93.60
2019-03-20T00:35:37.637Z,93.80
2019-03-20T00:38:07.871Z,93.70
2019-03-20T00:40:38.054Z,93.60
2019-03-20T00:43:09.040Z,93.80
2019-03-20T00:45:39.044Z,93.70
2019-03-20T00:48:07.840Z,93.90
2019-03-20T00:50:37.774Z,93.70
2019-03-20T00:53:13.758Z,93.30
2019-03-20T00:55:45.672Z,93.40
2019-03-20T00:58:15.417Z,93.60
2019-03-20T01:00:45.266Z,93.80
2019-03-20T01:03:14.799Z,94.20
2019-03-20T01:05:43.705Z,94.10
2019-03-20T01:08:14.026Z,94.20
2019-03-20T01:10:43.504Z,94.30
2019-03-20T01:13:12.787Z,94.60
2019-03-20T01:15:42.738Z,94.30
2019-03-20T01:18:13.231Z,94.40
2019-03-20T01:20:44.475Z,94.20
2019-03-20T01:23:13.923Z,94.50
2019-03-20T01:25:42.746Z,94.30
2019-03-20T01:28:14.035Z,94.30
2019-03-20T01:30:44.039Z,94.50
2019-03-20T01:33:15.256Z,94.50
2019-03-20T01:35:47.350Z,94.50
2019-03-20T01:38:30.974Z,94.50
2019-03-20T01:41:01.619Z,94.60
2019-03-20T01:43:33.603Z,94.80
2019-03-20T01:46:04.046Z,94.80
2019-03-20T01:48:33.718Z,94.90
2019-03-20T01:51:20.787Z,94.70
2019-03-20T01:53:52.780Z,94.70
2019-03-20T01:56:22.797Z,94.50
2019-03-20T01:59:05.214Z,94.80
2019-03-20T02:01:35.696Z,94.70
2019-03-20T02:04:05.230Z,94.90
2019-03-20T02:06:34.530Z,94.90
2019-03-20T02:09:05.462Z,94.80
2019-03-20T02:11:34.971Z,94.80
2019-03-20T02:14:04.224Z,95.00
2019-03-20T02:16:34.506Z,95.00
2019-03-20T02:19:04.127Z,94.80
2019-03-20T02:21:35.147Z,94.90
2019-03-20T02:24:09.061Z,94.70
2019-03-20T02:26:39.493Z,95.00
2019-03-20T02:29:13.110Z,95.00
2019-03-20T02:31:49.747Z,94.90
2019-03-20T02:34:21.562Z,95.00
2019-03-20T02:36:51.107Z,94.80
2019-03-20T02:39:20.567Z,94.90
2019-03-20T02:41:50.763Z,95.30
2019-03-20T02:44:21.860Z,95.30
2019-03-20T02:46:51.257Z,95.50
2019-03-20T02:49:21.717Z,95.50
2019-03-20T02:51:51.713Z,95.50
2019-03-20T02:54:21.480Z,95.60
2019-03-20T02:56:51.032Z,95.70
2019-03-20T02:59:21.028Z,95.90
2019-03-20T03:01:50.949Z,95.90
2019-03-20T03:04:21.214Z,95.80
2019-03-20T03:06:51.234Z,96.00
2019-03-20T03:09:21.731Z,96.00
2019-03-20T03:11:52.773Z,96.00
2019-03-20T03:14:23.587Z,96.10
2019-03-20T03:16:53.708Z,96.30
2019-03-20T03:19:22.875Z,96.20
2019-03-20T03:21:52.186Z,96.30
2019-03-20T03:24:22.307Z,96.30
2019-03-20T03:26:52.613Z,96.30
2019-03-20T03:29:22.788Z,96.10
2019-03-20T03:31:54.774Z,96.30
2019-03-20T03:34:24.654Z,96.40
2019-03-20T03:36:54.225Z,96.40
2019-03-20T03:39:25.115Z,96.40
2019-03-20T03:41:55.554Z,96.50
2019-03-20T03:44:25.119Z,96.50
2019-03-20T03:47:02.523Z,96.40
2019-03-20T03:49:32.608Z,96.10
2019-03-20T03:52:02.178Z,96.20
2019-03-20T03:54:30.957Z,96.30
2019-03-20T03:57:00.257Z,96.30
2019-03-20T03:59:30.539Z,96.30
2019-03-20T04:01:59.898Z,96.10
2019-03-20T04:04:28.863Z,96.30
2019-03-20T04:06:57.672Z,96.20
2019-03-20T04:09:27.114Z,96.20
2019-03-20T04:11:56.106Z,96.10
2019-03-20T04:14:25.078Z,96.20
2019-03-20T04:16:54.102Z,96.20
2019-03-20T04:19:24.633Z,96.20
2019-03-20T04:21:54.944Z,96.40
2019-03-20T04:24:24.935Z,96.60
2019-03-20T04:26:55.114Z,96.50
2019-03-20T04:29:26.104Z,96.60
2019-03-20T04:31:56.141Z,96.60
2019-03-20T04:34:28.800Z,96.80
2019-03-20T04:37:00.229Z,96.80
2019-03-20T04:39:30.768Z,96.90
2019-03-20T04:42:00.056Z,96.90
2019-03-20T04:44:30.218Z,96.80
2019-03-20T04:46:59.962Z,96.80
2019-03-20T04:49:29.819Z,96.90
2019-03-20T04:51:58.591Z,97.10
2019-03-20T04:54:29.125Z,97.10
2019-03-20T04:56:58.078Z,97.10
2019-03-20T04:59:27.042Z,97.00
2019-03-20T05:01:56.143Z,97.00
2019-03-20T05:04:26.191Z,96.90
2019-03-20T05:06:59.145Z,96.90
2019-03-20T05:09:26.766Z,96.90
2019-03-20T05:11:56.015Z,96.90
2019-03-20T05:14:27.260Z,96.70
2019-03-20T05:16:56.778Z,96.70
2019-03-20T05:19:29.135Z,96.80
2019-03-20T05:21:59.802Z,96.80
2019-03-20T05:24:33.789Z,96.90
2019-03-20T05:27:09.604Z,96.80
2019-03-20T05:29:39.789Z,96.70
2019-03-20T05:32:09.942Z,96.70
2019-03-20T05:34:39.740Z,96.80
2019-03-20T05:37:11.066Z,96.80
2019-03-20T05:39:40.700Z,96.70
2019-03-20T05:42:14.149Z,97.10
2019-03-20T05:44:43.916Z,97.20
2019-03-20T05:47:15.850Z,97.50
2019-03-20T05:49:46.556Z,97.80
2019-03-20T05:52:17.006Z,97.70
2019-03-20T05:54:48.426Z,97.80
2019-03-20T05:57:18.178Z,97.90
2019-03-20T05:59:47.620Z,97.70
2019-03-20T06:02:17.489Z,97.60
2019-03-20T06:04:48.152Z,97.20
2019-03-20T06:07:21.924Z,97.30
2019-03-20T06:09:50.041Z,97.10
2019-03-20T06:12:21.468Z,97.20
2019-03-20T06:14:50.887Z,97.10
2019-03-20T06:17:20.170Z,97.00
2019-03-20T06:19:49.850Z,97.20
2019-03-20T06:22:19.789Z,97.20
2019-03-20T06:24:48.527Z,97.30
2019-03-20T06:27:17.944Z,97.30
2019-03-20T06:29:48.230Z,97.80
2019-03-20T06:32:17.889Z,97.50
2019-03-20T06:34:48.950Z,97.50
2019-03-20T06:37:18.466Z,97.10
2019-03-20T06:39:53.455Z,97.10
2019-03-20T06:42:22.531Z,96.90
2019-03-20T06:44:51.366Z,96.90
2019-03-20T06:47:20.212Z,97.00
2019-03-20T06:49:49.828Z,97.00
2019-03-20T06:52:19.236Z,96.60
2019-03-20T06:54:48.654Z,96.40
2019-03-20T06:57:19.621Z,96.20
2019-03-20T07:00:25.582Z,96.30
2019-03-20T07:03:00.003Z,95.90
2019-03-20T07:05:50.186Z,95.90
2019-03-20T07:08:21.282Z,95.90
2019-03-20T07:11:07.942Z,95.70
2019-03-20T07:13:38.907Z,95.40
2019-03-20T07:16:07.765Z,95.30
2019-03-20T07:18:36.899Z,95.30
2019-03-20T07:21:07.988Z,95.40
2019-03-20T07:23:36.795Z,95.10
2019-03-20T07:26:05.607Z,94.90
2019-03-20T07:28:34.406Z,94.70
2019-03-20T07:31:14.340Z,94.30
2019-03-20T07:33:34.261Z,93.90
2019-03-20T07:36:03.729Z,94.30
2019-03-20T07:38:32.801Z,94.10
2019-03-20T07:41:02.018Z,94.10
2019-03-20T07:43:32.200Z,94.00
2019-03-20T07:46:01.896Z,93.70
2019-03-20T07:48:31.886Z,93.80
2019-03-20T07:51:01.795Z,93.60
2019-03-20T07:53:32.334Z,93.20
2019-03-20T07:56:02.950Z,92.70
2019-03-20T07:58:33.667Z,92.00
2019-03-20T08:01:05.451Z,92.20
2019-03-20T08:03:35.938Z,91.70
2019-03-20T08:06:05.081Z,91.00
2019-03-20T08:08:34.315Z,90.10
2019-03-20T08:11:04.304Z,90.90
2019-03-20T08:13:33.469Z,90.50
2019-03-20T08:16:04.036Z,89.00
2019-03-20T08:18:33.076Z,89.20
2019-03-20T08:21:02.770Z,86.70
2019-03-20T08:23:31.758Z,86.80
2019-03-20T08:26:01.168Z,85.40
2019-03-20T08:28:30.316Z,81.30
2019-03-20T08:31:00.975Z,81.50
2019-03-20T08:33:31.979Z,80.20
2019-03-20T08:36:02.525Z,82.10
2019-03-20T08:38:33.002Z,80.30
2019-03-20T08:41:03.951Z,79.70
2019-03-20T08:43:34.033Z,80.40
2019-03-20T08:46:04.110Z,78.70
2019-03-20T08:48:33.174Z,74.30
2019-03-20T08:51:04.277Z,69.70
2019-03-20T08:53:34.136Z,62.60
2019-03-20T08:56:03.985Z,60.30
2019-03-20T08:58:33.298Z,59.10
2019-03-20T09:01:04.234Z,56.90
2019-03-20T09:03:34.756Z,56.70
2019-03-20T09:06:04.989Z,56.90
2019-03-20T09:08:34.935Z,54.30
2019-03-20T09:11:06.851Z,56.80
2019-03-20T09:13:36.857Z,56.20
2019-03-20T09:16:08.918Z,54.50
2019-03-20T09:18:38.708Z,58.60
2019-03-20T09:21:07.977Z,57.60
2019-03-20T09:23:40.774Z,58.00
2019-03-20T09:26:09.909Z,57.10
2019-03-20T09:28:42.259Z,57.50
2019-03-20T09:46:02.588Z,59.30
2019-03-20T09:48:31.470Z,58.70
2019-03-20T09:51:00.479Z,59.00
2019-03-20T09:53:29.325Z,59.00
2019-03-20T09:55:58.181Z,58.40
2019-03-20T09:58:27.110Z,57.90
2019-03-20T10:01:04.832Z,58.20
2019-03-20T10:03:33.684Z,57.30
2019-03-20T10:06:02.536Z,57.00
2019-03-20T10:08:31.407Z,54.50
2019-03-20T10:11:00.481Z,55.40
2019-03-20T10:13:29.587Z,56.40
2019-03-20T10:15:58.668Z,54.20
2019-03-20T10:18:27.537Z,55.80
2019-03-20T10:20:56.507Z,55.90
2019-03-20T10:23:25.597Z,53.70
2019-03-20T10:25:54.440Z,56.20
2019-03-20T10:28:23.419Z,53.60
2019-03-20T10:30:53.260Z,51.80
2019-03-20T10:33:22.337Z,53.50
2019-03-20T10:35:51.158Z,52.40
2019-03-20T10:38:20.062Z,53.30
2019-03-20T10:40:48.966Z,54.30
2019-03-20T10:43:17.876Z,52.80
2019-03-20T10:45:49.933Z,51.40
2019-03-20T10:48:18.996Z,51.80
2019-03-20T10:50:48.037Z,50.60
2019-03-20T10:53:17.047Z,50.90
2019-03-20T10:55:45.979Z,48.90
2019-03-20T10:58:14.792Z,51.60
2019-03-20T11:00:43.933Z,50.80
2019-03-20T11:03:12.818Z,50.80
2019-03-20T11:05:41.747Z,47.90
2019-03-20T11:08:12.942Z,51.40
2019-03-20T11:10:41.400Z,52.20
2019-03-20T11:13:10.607Z,49.60
2019-03-20T11:15:39.387Z,48.40
2019-03-20T11:18:08.393Z,48.50
2019-03-20T11:20:37.363Z,47.90
2019-03-20T11:23:06.282Z,46.90
2019-03-20T11:25:35.230Z,46.20
2019-03-20T11:28:04.325Z,47.50
2019-03-20T11:30:33.936Z,46.30
2019-03-20T11:33:02.839Z,45.60
2019-03-20T11:35:31.947Z,45.10
2019-03-20T11:38:01.007Z,44.00
2019-03-20T11:40:31.470Z,44.00
2019-03-20T11:43:00.447Z,43.80
2019-03-20T11:45:29.421Z,42.30
2019-03-20T11:47:58.524Z,42.20
2019-03-20T11:50:38.435Z,40.70
2019-03-20T11:53:08.191Z,40.70
2019-03-20T11:55:37.270Z,41.40
2019-03-20T11:58:07.058Z,39.30
2019-03-20T12:00:36.162Z,38.80
2019-03-20T12:03:05.520Z,40.00
2019-03-20T12:05:34.382Z,41.30
2019-03-20T12:08:03.544Z,40.00
2019-03-20T12:10:36.523Z,38.90
2019-03-20T12:13:05.453Z,37.50
2019-03-20T12:15:34.334Z,39.20
2019-03-20T12:18:03.183Z,40.90
2019-03-20T12:20:32.159Z,39.50
2019-03-20T12:23:01.195Z,38.50
2019-03-20T12:25:40.681Z,36.60
2019-03-20T12:28:09.560Z,35.40
2019-03-20T12:30:41.447Z,37.20
2019-03-20T12:33:10.358Z,36.40
2019-03-20T12:35:42.645Z,35.40
2019-03-20T12:38:14.716Z,38.00
2019-03-20T12:40:42.242Z,35.30
2019-03-20T12:43:11.131Z,35.00
2019-03-20T12:45:40.494Z,35.30
2019-03-20T12:50:45.717Z,33.60
2019-03-20T12:53:23.740Z,31.40
2019-03-20T12:55:52.748Z,31.90
2019-03-20T12:58:21.533Z,30.10
2019-03-20T13:00:50.436Z,31.30
2019-03-20T13:03:19.232Z,31.70
2019-03-20T13:05:48.128Z,31.60
2019-03-20T13:08:16.971Z,33.70
2019-03-20T13:10:45.921Z,31.50
2019-03-20T13:13:14.850Z,30.90
2019-03-20T13:15:44.169Z,31.80
2019-03-20T13:18:12.997Z,31.40
2019-03-20T13:20:42.221Z,30.60
2019-03-20T13:23:14.358Z,30.40
2019-03-20T13:25:43.475Z,30.20
2019-03-20T13:28:12.297Z,30.20
2019-03-20T13:30:50.530Z,31.60
2019-03-20T13:33:25.753Z,31.10
2019-03-20T13:35:51.110Z,32.60
2019-03-20T13:38:19.932Z,31.60
2019-03-20T13:40:48.890Z,31.90
2019-03-20T13:43:17.899Z,31.80
2019-03-20T13:45:46.754Z,30.90
2019-03-20T13:48:15.659Z,30.60
2019-03-20T13:50:44.641Z,30.60
2019-03-20T13:53:15.325Z,30.20
2019-03-20T13:55:44.456Z,30.60
2019-03-20T13:58:13.454Z,31.00
2019-03-20T14:00:42.448Z,31.10
2019-03-20T14:03:11.694Z,32.70
2019-03-20T14:05:40.628Z,32.10
2019-03-20T14:08:09.468Z,31.10
2019-03-20T14:10:49.505Z,31.70
2019-03-20T14:13:08.939Z,31.00
2019-03-20T14:15:37.847Z,31.30
2019-03-20T14:18:06.771Z,31.30
2019-03-20T14:20:35.665Z,30.40
2019-03-20T14:23:04.588Z,29.90
2019-03-20T14:25:33.710Z,30.80
2019-03-20T14:28:02.600Z,30.80
2019-03-20T14:30:33.670Z,30.00
2019-03-20T14:33:02.772Z,30.80
2019-03-20T14:35:31.701Z,30.30
2019-03-20T14:38:00.696Z,30.00
2019-03-20T14:40:36.845Z,31.90
2019-03-20T14:43:06.161Z,31.90
2019-03-20T14:48:31.973Z,29.20
2019-03-20T14:51:00.824Z,30.30
2019-03-20T14:53:29.864Z,29.80
2019-03-20T14:55:58.748Z,29.70
2019-03-20T14:58:27.611Z,31.30
2019-03-20T15:00:56.598Z,33.20
2019-03-20T15:03:25.475Z,33.10
2019-03-20T15:05:54.390Z,32.10
2019-03-20T15:08:23.182Z,33.00
2019-03-20T15:10:53.815Z,34.40
2019-03-20T15:13:22.611Z,35.20
2019-03-20T15:16:06.755Z,35.80
2019-03-20T15:18:35.566Z,36.00
2019-03-20T15:21:04.420Z,36.00
2019-03-20T15:23:33.301Z,37.10
2019-03-20T15:26:02.220Z,36.70
2019-03-20T15:28:30.994Z,37.50
2019-03-20T15:30:59.873Z,38.70
2019-03-20T15:33:28.890Z,39.20
2019-03-20T15:35:57.905Z,39.70
2019-03-20T15:38:26.968Z,40.10
2019-03-20T15:40:56.539Z,40.40
2019-03-20T15:43:25.587Z,40.50
2019-03-20T17:51:04.806Z,52.30
2019-03-20T17:53:33.987Z,51.80
2019-03-20T17:56:20.497Z,52.00
2019-03-20T17:58:49.346Z,51.60
2019-03-20T18:01:18.241Z,52.20
2019-03-20T18:03:47.090Z,52.80
2019-03-20T18:06:16.159Z,52.00
2019-03-20T18:08:45.419Z,53.00
2019-03-20T18:11:14.539Z,52.90
2019-03-20T18:13:43.795Z,52.80
2019-03-20T18:16:15.918Z,52.90
2019-03-20T18:18:49.739Z,53.60
2019-03-20T18:21:19.259Z,53.60
2019-03-20T18:23:48.752Z,53.50
2019-03-20T18:26:18.035Z,53.10
2019-03-20T18:28:49.847Z,54.00
2019-03-20T18:31:19.981Z,54.00
2019-03-20T18:34:31.406Z,54.40
2019-03-20T18:36:59.391Z,55.30
2019-03-20T18:42:14.789Z,54.50
2019-03-20T18:44:43.791Z,54.50
2019-03-20T18:47:12.604Z,55.00
2019-03-20T18:49:41.528Z,54.80
2019-03-20T18:52:10.343Z,54.50
2019-03-20T18:54:39.131Z,54.80
2019-03-20T18:57:07.960Z,55.60
2019-03-20T18:59:36.797Z,55.00
2019-03-20T19:02:05.587Z,55.40
2019-03-20T19:04:34.470Z,55.40
2019-03-20T19:07:03.241Z,55.40
2019-03-20T19:09:32.390Z,54.90
2019-03-20T19:12:08.536Z,56.60
2019-03-20T19:14:31.836Z,56.60
2019-03-20T19:17:00.707Z,56.50
2019-03-20T19:19:29.769Z,57.00
2019-03-20T19:22:02.811Z,57.30
2019-03-20T19:24:31.697Z,57.40
2019-03-20T19:27:00.559Z,57.30
2019-03-20T19:29:29.411Z,57.50
2019-03-20T19:31:58.244Z,58.10
2019-03-20T19:34:27.122Z,58.00
2019-03-20T19:36:56.270Z,58.50
2019-03-20T19:39:25.164Z,60.40
2019-03-20T19:41:54.037Z,59.50
2019-03-20T19:44:22.916Z,60.40
2019-03-20T19:46:51.730Z,59.20
2019-03-20T19:49:20.534Z,60.40
2019-03-20T19:51:49.353Z,60.00
2019-03-20T19:54:18.147Z,60.90
2019-03-20T19:56:47.051Z,60.50
2019-03-20T19:59:15.848Z,59.50
2019-03-20T20:01:44.840Z,59.20
2019-03-20T20:04:14.517Z,61.50
2019-03-20T20:06:43.339Z,62.70
2019-03-20T20:09:12.454Z,62.10
2019-03-20T20:11:41.460Z,63.10
2019-03-20T20:14:10.236Z,62.70
2019-03-20T20:16:39.163Z,63.90
2019-03-20T20:19:08.147Z,63.60
2019-03-20T20:21:36.933Z,64.60
2019-03-20T20:24:05.783Z,65.60
2019-03-20T20:26:34.648Z,64.00
2019-03-20T20:29:06.532Z,65.30
2019-03-20T20:31:35.386Z,66.60
2019-03-20T20:34:04.500Z,65.30
2019-03-20T20:36:33.414Z,67.20
2019-03-20T20:39:02.322Z,66.80
2019-03-20T20:41:31.225Z,67.90
2019-03-20T20:44:00.126Z,68.30
2019-03-20T20:46:29.024Z,67.90
2019-03-20T20:48:57.874Z,67.50
2019-03-20T20:51:26.691Z,68.80
2019-03-20T20:53:55.570Z,68.00
2019-03-20T20:56:24.552Z,68.70
2019-03-20T20:58:55.134Z,67.20
2019-03-20T21:01:24.058Z,69.40
2019-03-20T21:03:52.984Z,69.70
2019-03-20T21:06:21.838Z,69.20
2019-03-20T21:08:50.663Z,68.80
2019-03-20T21:11:19.561Z,68.30
2019-03-20T21:13:48.753Z,70.10
2019-03-20T21:16:17.689Z,69.50
2019-03-20T21:18:49.869Z,67.40
2019-03-20T21:21:19.311Z,66.10
2019-03-20T21:24:21.794Z,65.60
2019-03-20T21:27:05.946Z,65.70
2019-03-20T21:29:53.891Z,67.50
2019-03-20T21:32:43.854Z,66.30
2019-03-20T21:35:31.258Z,68.00
2019-03-20T21:38:07.053Z,66.20
2019-03-20T21:40:39.160Z,67.50
2019-03-20T21:43:43.207Z,68.60
2019-03-20T21:46:20.893Z,67.90
2019-03-20T21:48:49.855Z,67.60
2019-03-20T21:51:18.748Z,67.60
2019-03-20T21:54:08.990Z,68.10
2019-03-20T21:57:10.309Z,68.60
2019-03-20T22:00:00.418Z,68.80
2019-03-20T22:02:41.524Z,68.10
2019-03-20T22:05:23.067Z,68.80
2019-03-20T22:07:46.931Z,67.00
2019-03-20T22:10:46.135Z,66.70
2019-03-20T22:13:20.969Z,67.10
2019-03-20T22:16:20.302Z,67.00
2019-03-20T22:19:01.649Z,67.50
2019-03-20T22:22:07.434Z,65.20
2019-03-20T22:25:00.500Z,65.40
2019-03-20T22:27:59.460Z,65.40
2019-03-20T22:30:28.761Z,66.60
2019-03-20T22:33:30.080Z,66.80
2019-03-20T22:35:59.292Z,65.00
2019-03-20T22:38:43.163Z,66.80
2019-03-20T22:41:27.303Z,66.70
2019-03-20T22:43:59.165Z,67.30
2019-03-20T22:47:05.081Z,66.80
2019-03-20T22:50:00.419Z,65.10
2019-03-20T22:53:01.600Z,64.60
2019-03-20T22:55:46.143Z,64.90
2019-03-20T22:58:44.737Z,66.50
2019-03-20T23:01:16.969Z,66.30
2019-03-20T23:03:49.233Z,65.20
2019-03-20T23:06:18.628Z,64.70
2019-03-20T23:08:47.727Z,64.90
2019-03-20T23:11:16.719Z,64.30
2019-03-20T23:13:46.063Z,64.40
2019-03-20T23:16:18.183Z,63.70
2019-03-20T23:18:47.223Z,64.20
2019-03-20T23:21:16.043Z,63.60
2019-03-20T23:23:45.018Z,64.50
2019-03-20T23:26:14.326Z,64.90
2019-03-20T23:28:58.643Z,64.70
2019-03-20T23:31:27.682Z,64.20
2019-03-20T23:33:56.767Z,64.00
2019-03-20T23:36:26.837Z,65.30
2019-03-20T23:38:55.707Z,65.00
2019-03-20T23:41:25.550Z,65.00
2019-03-20T23:43:55.103Z,65.60
2019-03-20T23:46:24.456Z,65.70
2019-03-20T23:49:05.608Z,64.20
2019-03-20T23:51:36.407Z,66.70
2019-03-20T23:54:08.685Z,65.40
2019-03-20T23:56:41.970Z,64.60
2019-03-20T23:59:11.142Z,67.50
